PWSweather.com
Personal Weather Stations
Station Observations
KNVELKO7
Elko, NV 89801

Elko, NV 89801

Lat: 40.963233, Lon: -115.592836

Elevation: 5230

Station Type: WS-2812

Latest ConditionsUpdated 5:39:31 PM PST Saturday, Feb 13, 2016
Currently Today's Max Today's Min Today's Average
Temperature 38.5°F3.6°C 49.3°F9.6°C 11.2°F-11.6°C 28.2°F-2.1°C
Dew Point 25.4°F-3.7°C 32.4°F0.2°C 6.4°F-14.2°C 19.4°F-7.0°C
Winds 2.7 mph ESE4.3 kmh ESE 6.3 mph 10.1 kmh - 2.4 mph 3.9 kmh
Wind Gusts 4.7 mph7.6 kmh 6.7 mph10.8 kmh - -
Humidity 59% 85% 50% 71%
Pressure 30.26 in1024.7 mb 30.33 in1027.1 mb 30.24 in1024.0 mb -
Hour Temp Dew Point Humidity Winds Wind Gusts Pressure Precip Precip Rate Daily Precip Total
05:39 PM 38.5°F3.6°C 25.4°F-3.7°C 59% 2.7 mph ESE4.3 kmh ESE 4.7 mph7.6 kmh 30.26 in1024.7 mb 0.00 in0.0 mm 0.00 in0.0 mm 0.00 in0.0 mm
05:34 PM 39.2°F4.0°C 25.6°F-3.6°C 58% 3.1 mph E5.0 kmh E 4.7 mph7.6 kmh 30.27 in1025.1 mb 0.00 in0.0 mm 0.00 in0.0 mm 0.00 in0.0 mm
05:29 PM 40.7°F4.8°C 26.6°F-3.0°C 57% 3.2 mph E5.1 kmh E 3.6 mph5.8 kmh 30.26 in1024.7 mb 0.00 in0.0 mm 0.00 in0.0 mm 0.00 in0.0 mm
05:24 PM 41.4°F5.2°C 27.3°F-2.6°C 57% 2.3 mph E3.7 kmh E 3.4 mph5.5 kmh 30.26 in1024.7 mb 0.00 in0.0 mm 0.00 in0.0 mm 0.00 in0.0 mm
05:19 PM 41.8°F5.4°C 27.5°F-2.5°C 57% Calm Calm -- 30.26 in1024.7 mb 0.00 in0.0 mm 0.00 in0.0 mm 0.00 in0.0 mm
05:14 PM 42.1°F5.6°C 27.9°F-2.3°C 57% Calm Calm 2.0 mph3.2 kmh 30.26 in1024.7 mb 0.00 in0.0 mm 0.00 in0.0 mm 0.00 in0.0 mm
05:09 PM 42.3°F5.7°C 27.6°F-2.4°C 56% 0.3 mph NNW0.5 kmh NNW 2.9 mph4.7 kmh 30.26 in1024.7 mb 0.00 in0.0 mm 0.00 in0.0 mm 0.00 in0.0 mm
05:04 PM 42.8°F6.0°C 28.2°F-2.1°C 56% 2.7 mph NNW4.3 kmh NNW 2.9 mph4.7 kmh 30.26 in1024.7 mb 0.00 in0.0 mm 0.00 in0.0 mm 0.00 in0.0 mm
04:59 PM 42.8°F6.0°C 27.7°F-2.4°C 55% 1.1 mph W1.8 kmh W 2.2 mph3.5 kmh 30.26 in1024.7 mb 0.00 in0.0 mm 0.00 in0.0 mm 0.00 in0.0 mm
04:54 PM 43.4°F6.3°C 28.3°F-2.1°C 55% 1.0 mph NNW1.6 kmh NNW 3.4 mph5.5 kmh 30.26 in1024.7 mb 0.00 in0.0 mm 0.00 in0.0 mm 0.00 in0.0 mm
04:49 PM 43.9°F6.6°C 28.3°F-2.1°C 54% 0.4 mph NNE0.6 kmh NNE 3.4 mph5.5 kmh 30.26 in1024.7 mb 0.00 in0.0 mm 0.00 in0.0 mm 0.00 in0.0 mm
04:44 PM 45.0°F7.2°C 29.8°F-1.2°C 55% 2.6 mph NW4.2 kmh NW 3.4 mph5.5 kmh 30.25 in1024.4 mb 0.00 in0.0 mm 0.00 in0.0 mm 0.00 in0.0 mm
04:39 PM 45.0°F7.2°C 29.4°F-1.4°C 54% 1.1 mph 1.8 kmh 2.7 mph4.3 kmh 30.26 in1024.7 mb 0.00 in0.0 mm 0.00 in0.0 mm 0.00 in0.0 mm
04:34 PM 45.7°F7.6°C 30.0°F-1.1°C 54% 2.5 mph 4.0 kmh 2.7 mph4.3 kmh 30.25 in1024.4 mb 0.00 in0.0 mm 0.00 in0.0 mm 0.00 in0.0 mm
04:29 PM 45.9°F7.7°C 30.2°F-1.0°C 54% 1.9 mph NNW3.1 kmh NNW 2.0 mph3.2 kmh 30.25 in1024.4 mb 0.00 in0.0 mm 0.00 in0.0 mm 0.00 in0.0 mm
04:24 PM 46.1°F7.8°C 30.7°F-0.7°C 55% 1.7 mph NW2.7 kmh NW 1.8 mph2.9 kmh 30.24 in1024.0 mb 0.00 in0.0 mm 0.00 in0.0 mm 0.00 in0.0 mm
04:19 PM 45.9°F7.7°C 30.2°F-1.0°C 54% 1.0 mph W1.6 kmh W 2.2 mph3.5 kmh 30.24 in1024.0 mb 0.00 in0.0 mm 0.00 in0.0 mm 0.00 in0.0 mm
04:14 PM 46.3°F7.9°C 30.4°F-0.9°C 54% 1.5 mph W2.4 kmh W 2.7 mph4.3 kmh 30.24 in1024.0 mb 0.00 in0.0 mm 0.00 in0.0 mm 0.00 in0.0 mm
04:09 PM 47.0°F8.3°C 30.7°F-0.7°C 53% 2.2 mph W3.5 kmh W 2.7 mph4.3 kmh 30.24 in1024.0 mb 0.00 in0.0 mm 0.00 in0.0 mm 0.00 in0.0 mm
04:04 PM 47.9°F8.8°C 31.5°F-0.3°C 53% 1.9 mph NW3.1 kmh NW 2.0 mph3.2 kmh 30.24 in1024.0 mb 0.00 in0.0 mm 0.00 in0.0 mm 0.00 in0.0 mm
03:58 PM 47.9°F8.8°C 32.0°F0.0°C 54% 0.9 mph SE1.4 kmh SE 1.3 mph2.1 kmh 30.24 in1024.0 mb 0.00 in0.0 mm 0.00 in0.0 mm 0.00 in0.0 mm
03:53 PM 47.5°F8.6°C 31.6°F-0.2°C 54% 0.8 mph SE1.3 kmh SE 1.8 mph2.9 kmh 30.24 in1024.0 mb 0.00 in0.0 mm 0.00 in0.0 mm 0.00 in0.0 mm
03:48 PM 47.2°F8.4°C 31.3°F-0.4°C 54% 0.4 mph E0.6 kmh E 2.2 mph3.5 kmh 30.24 in1024.0 mb 0.00 in0.0 mm 0.00 in0.0 mm 0.00 in0.0 mm
03:43 PM 46.6°F8.1°C 31.2°F-0.4°C 55% 1.7 mph E2.7 kmh E 3.8 mph6.1 kmh 30.24 in1024.0 mb 0.00 in0.0 mm 0.00 in0.0 mm 0.00 in0.0 mm
03:39 PM 46.3°F7.9°C 30.9°F-0.6°C 55% 1.8 mph NE2.9 kmh NE 3.8 mph6.1 kmh 30.25 in1024.4 mb 0.00 in0.0 mm 0.00 in0.0 mm 0.00 in0.0 mm
03:34 PM 45.5°F7.5°C 30.2°F-1.0°C 55% 2.3 mph E3.7 kmh E 5.6 mph9.0 kmh 30.24 in1024.0 mb 0.00 in0.0 mm 0.00 in0.0 mm 0.00 in0.0 mm
03:29 PM 45.0°F7.2°C 29.4°F-1.4°C 54% 4.1 mph ENE6.6 kmh ENE 5.6 mph9.0 kmh 30.25 in1024.4 mb 0.00 in0.0 mm 0.00 in0.0 mm 0.00 in0.0 mm
03:24 PM 45.5°F7.5°C 29.3°F-1.5°C 53% 5.1 mph NE8.2 kmh NE 5.6 mph9.0 kmh 30.25 in1024.4 mb 0.00 in0.0 mm 0.00 in0.0 mm 0.00 in0.0 mm
03:19 PM 45.9°F7.7°C 29.7°F-1.3°C 53% 4.4 mph 7.1 kmh 5.4 mph8.7 kmh 30.25 in1024.4 mb 0.00 in0.0 mm 0.00 in0.0 mm 0.00 in0.0 mm
03:14 PM 46.1°F7.8°C 29.3°F-1.5°C 52% 2.5 mph 4.0 kmh 5.4 mph8.7 kmh 30.25 in1024.4 mb 0.00 in0.0 mm 0.00 in0.0 mm 0.00 in0.0 mm
03:09 PM 46.8°F8.2°C 29.6°F-1.3°C 51% 4.5 mph 7.2 kmh 4.7 mph7.6 kmh 30.25 in1024.4 mb 0.00 in0.0 mm 0.00 in0.0 mm 0.00 in0.0 mm
03:04 PM 47.9°F8.8°C 30.1°F-1.1°C 50% 3.3 mph NE5.3 kmh NE 4.7 mph7.6 kmh 30.25 in1024.4 mb 0.00 in0.0 mm 0.00 in0.0 mm 0.00 in0.0 mm
02:58 PM 49.3°F9.6°C 32.0°F0.0°C 51% 4.0 mph NE6.4 kmh NE 4.7 mph7.6 kmh 30.25 in1024.4 mb 0.00 in0.0 mm 0.00 in0.0 mm 0.00 in0.0 mm
02:53 PM 49.3°F9.6°C 32.4°F0.2°C 52% 2.3 mph NE3.7 kmh NE 3.4 mph5.5 kmh 30.25 in1024.4 mb 0.00 in0.0 mm 0.00 in0.0 mm 0.00 in0.0 mm
02:48 PM 49.0°F9.4°C 32.0°F0.0°C 52% 3.2 mph ESE5.1 kmh ESE 3.4 mph5.5 kmh 30.25 in1024.4 mb 0.00 in0.0 mm 0.00 in0.0 mm 0.00 in0.0 mm
02:43 PM 48.2°F9.0°C 31.9°F-0.1°C 53% 1.5 mph NE2.4 kmh NE 2.5 mph4.0 kmh 30.25 in1024.4 mb 0.00 in0.0 mm 0.00 in0.0 mm 0.00 in0.0 mm
02:38 PM 47.5°F8.6°C 31.1°F-0.5°C 53% 0.2 mph NW0.3 kmh NW 2.2 mph3.5 kmh 30.25 in1024.4 mb 0.00 in0.0 mm 0.00 in0.0 mm 0.00 in0.0 mm
02:33 PM 47.0°F8.3°C 30.3°F-0.9°C 52% 0.8 mph NW1.3 kmh NW 2.2 mph3.5 kmh 30.25 in1024.4 mb 0.00 in0.0 mm 0.00 in0.0 mm 0.00 in0.0 mm
02:28 PM 47.3°F8.5°C 30.5°F-0.8°C 52% 1.6 mph NNW2.6 kmh NNW 2.5 mph4.0 kmh 30.25 in1024.4 mb 0.00 in0.0 mm 0.00 in0.0 mm 0.00 in0.0 mm
02:23 PM 47.9°F8.8°C 31.1°F-0.5°C 52% 2.3 mph NNW3.7 kmh NNW 2.5 mph4.0 kmh 30.25 in1024.4 mb 0.00 in0.0 mm 0.00 in0.0 mm 0.00 in0.0 mm
02:18 PM 47.9°F8.8°C 31.5°F-0.3°C 53% 1.9 mph 3.1 kmh 2.2 mph3.5 kmh 30.25 in1024.4 mb 0.00 in0.0 mm 0.00 in0.0 mm 0.00 in0.0 mm
02:14 PM 47.7°F8.7°C 31.3°F-0.4°C 53% 0.8 mph NW1.3 kmh NW 2.2 mph3.5 kmh 30.25 in1024.4 mb 0.00 in0.0 mm 0.00 in0.0 mm 0.00 in0.0 mm
02:09 PM 47.5°F8.6°C 31.1°F-0.5°C 53% Calm Calm 1.8 mph2.9 kmh 30.25 in1024.4 mb 0.00 in0.0 mm 0.00 in0.0 mm 0.00 in0.0 mm
02:04 PM 47.2°F8.4°C 30.3°F-0.9°C 52% Calm Calm 1.8 mph2.9 kmh 30.25 in1024.4 mb 0.00 in0.0 mm 0.00 in0.0 mm 0.00 in0.0 mm
01:58 PM 47.3°F8.5°C 31.0°F-0.6°C 53% 1.6 mph NW2.6 kmh NW 2.2 mph3.5 kmh 30.25 in1024.4 mb 0.00 in0.0 mm 0.00 in0.0 mm 0.00 in0.0 mm
01:53 PM 47.5°F8.6°C 31.6°F-0.2°C 54% 2.0 mph NNW3.2 kmh NNW 2.2 mph3.5 kmh 30.25 in1024.4 mb 0.00 in0.0 mm 0.00 in0.0 mm 0.00 in0.0 mm
01:48 PM 46.4°F8.0°C 31.1°F-0.5°C 55% Calm Calm 2.7 mph4.3 kmh 30.25 in1024.4 mb 0.00 in0.0 mm 0.00 in0.0 mm 0.00 in0.0 mm
01:43 PM 45.7°F7.6°C 30.0°F-1.1°C 54% 1.4 mph NNW2.3 kmh NNW 3.8 mph6.1 kmh 30.25 in1024.4 mb 0.00 in0.0 mm 0.00 in0.0 mm 0.00 in0.0 mm
01:38 PM 45.9°F7.7°C 30.2°F-1.0°C 54% 2.9 mph NNW4.7 kmh NNW 3.8 mph6.1 kmh 30.25 in1024.4 mb 0.00 in0.0 mm 0.00 in0.0 mm 0.00 in0.0 mm
01:33 PM 46.1°F7.8°C 30.2°F-1.0°C 54% 3.1 mph NNW5.0 kmh NNW 3.1 mph5.0 kmh 30.26 in1024.7 mb 0.00 in0.0 mm 0.00 in0.0 mm 0.00 in0.0 mm
01:28 PM 46.3°F7.9°C 30.4°F-0.9°C 54% 2.2 mph NNW3.5 kmh NNW 3.8 mph6.1 kmh 30.26 in1024.7 mb 0.00 in0.0 mm 0.00 in0.0 mm 0.00 in0.0 mm
01:23 PM 46.6°F8.1°C 30.8°F-0.7°C 54% 2.1 mph N3.4 kmh N 3.8 mph6.1 kmh 30.26 in1024.7 mb 0.00 in0.0 mm 0.00 in0.0 mm 0.00 in0.0 mm
01:18 PM 47.2°F8.4°C 32.2°F0.1°C 56% 1.6 mph NE2.6 kmh NE 2.2 mph3.5 kmh 30.26 in1024.7 mb 0.00 in0.0 mm 0.00 in0.0 mm 0.00 in0.0 mm
01:13 PM 47.0°F8.3°C 32.1°F0.1°C 56% Calm Calm 2.9 mph4.7 kmh 30.26 in1024.7 mb 0.00 in0.0 mm 0.00 in0.0 mm 0.00 in0.0 mm
01:08 PM 46.3°F7.9°C 31.8°F-0.1°C 57% 1.9 mph ESE3.1 kmh ESE 2.9 mph4.7 kmh 30.26 in1024.7 mb 0.00 in0.0 mm 0.00 in0.0 mm 0.00 in0.0 mm
01:03 PM 45.2°F7.3°C 30.8°F-0.7°C 57% 1.1 mph SE1.8 kmh SE 1.8 mph2.9 kmh 30.27 in1025.1 mb 0.00 in0.0 mm 0.00 in0.0 mm 0.00 in0.0 mm
12:58 PM 45.0°F7.2°C 30.7°F-0.7°C 57% 1.6 mph NW2.6 kmh NW 2.2 mph3.5 kmh 30.27 in1025.1 mb 0.00 in0.0 mm 0.00 in0.0 mm 0.00 in0.0 mm
12:53 PM 44.8°F7.1°C 30.1°F-1.1°C 56% 0.4 mph NNW0.6 kmh NNW 2.5 mph4.0 kmh 30.28 in1025.4 mb 0.00 in0.0 mm 0.00 in0.0 mm 0.00 in0.0 mm
12:48 PM 44.8°F7.1°C 30.1°F-1.1°C 56% 1.6 mph NNW2.6 kmh NNW 2.5 mph4.0 kmh 30.28 in1025.4 mb 0.00 in0.0 mm 0.00 in0.0 mm 0.00 in0.0 mm
12:43 PM 44.8°F7.1°C 30.5°F-0.8°C 57% 1.1 mph NNW1.8 kmh NNW 1.8 mph2.9 kmh 30.28 in1025.4 mb 0.00 in0.0 mm 0.00 in0.0 mm 0.00 in0.0 mm
12:38 PM 44.3°F6.8°C 30.0°F-1.1°C 57% Calm Calm 1.8 mph2.9 kmh 30.28 in1025.4 mb 0.00 in0.0 mm 0.00 in0.0 mm 0.00 in0.0 mm
12:33 PM 44.3°F6.8°C 30.0°F-1.1°C 57% 1.2 mph NNW1.9 kmh NNW 2.5 mph4.0 kmh 30.29 in1025.7 mb 0.00 in0.0 mm 0.00 in0.0 mm 0.00 in0.0 mm
12:28 PM 44.1°F6.7°C 30.2°F-1.0°C 58% 1.3 mph NNW2.1 kmh NNW 3.4 mph5.5 kmh 30.29 in1025.7 mb 0.00 in0.0 mm 0.00 in0.0 mm 0.00 in0.0 mm
12:23 PM 44.5°F6.9°C 30.6°F-0.8°C 58% 2.5 mph NNW4.0 kmh NNW 3.4 mph5.5 kmh 30.29 in1025.7 mb 0.00 in0.0 mm 0.00 in0.0 mm 0.00 in0.0 mm
12:18 PM 44.8°F7.1°C 31.4°F-0.3°C 59% 1.9 mph N3.1 kmh N 2.2 mph3.5 kmh 30.30 in1026.1 mb 0.00 in0.0 mm 0.00 in0.0 mm 0.00 in0.0 mm
12:13 PM 44.5°F6.9°C 31.1°F-0.5°C 59% 1.0 mph SE1.6 kmh SE 1.8 mph2.9 kmh 30.29 in1025.7 mb 0.00 in0.0 mm 0.00 in0.0 mm 0.00 in0.0 mm
12:08 PM 44.3°F6.8°C 31.3°F-0.4°C 60% 0.4 mph SSE0.6 kmh SSE 1.6 mph2.6 kmh 30.29 in1025.7 mb 0.00 in0.0 mm 0.00 in0.0 mm 0.00 in0.0 mm
12:03 PM 43.9°F6.6°C 30.5°F-0.8°C 59% 1.6 mph SE2.6 kmh SE 2.5 mph4.0 kmh 30.30 in1026.1 mb 0.00 in0.0 mm 0.00 in0.0 mm 0.00 in0.0 mm
11:58 AM 43.6°F6.4°C 30.6°F-0.8°C 60% 0.4 mph NNE0.6 kmh NNE 2.5 mph4.0 kmh 30.30 in1026.1 mb 0.00 in0.0 mm 0.00 in0.0 mm 0.00 in0.0 mm
11:53 AM 43.2°F6.2°C 30.2°F-1.0°C 60% 1.9 mph ENE3.1 kmh ENE 3.4 mph5.5 kmh 30.30 in1026.1 mb 0.00 in0.0 mm 0.00 in0.0 mm 0.00 in0.0 mm
11:48 AM 43.4°F6.3°C 31.2°F-0.4°C 62% 2.2 mph NE3.5 kmh NE 3.4 mph5.5 kmh 30.30 in1026.1 mb 0.00 in0.0 mm 0.00 in0.0 mm 0.00 in0.0 mm
11:43 AM 43.6°F6.4°C 31.4°F-0.3°C 62% 3.1 mph E5.0 kmh E 3.6 mph5.8 kmh 30.31 in1026.4 mb 0.00 in0.0 mm 0.00 in0.0 mm 0.00 in0.0 mm
11:38 AM 43.4°F6.3°C 31.2°F-0.4°C 62% 3.5 mph E5.6 kmh E 4.0 mph6.4 kmh 30.31 in1026.4 mb 0.00 in0.0 mm 0.00 in0.0 mm 0.00 in0.0 mm
11:33 AM 43.0°F6.1°C 31.2°F-0.4°C 63% 3.2 mph E5.1 kmh E 4.7 mph7.6 kmh 30.31 in1026.4 mb 0.00 in0.0 mm 0.00 in0.0 mm 0.00 in0.0 mm
11:28 AM 42.7°F5.9°C 31.7°F-0.2°C 65% 3.6 mph E5.8 kmh E 4.7 mph7.6 kmh 30.32 in1026.8 mb 0.00 in0.0 mm 0.00 in0.0 mm 0.00 in0.0 mm
11:23 AM 42.1°F5.6°C 31.1°F-0.5°C 65% 2.3 mph ESE3.7 kmh ESE 4.0 mph6.4 kmh 30.32 in1026.8 mb 0.00 in0.0 mm 0.00 in0.0 mm 0.00 in0.0 mm
11:18 AM 41.6°F5.3°C 30.7°F-0.7°C 65% 3.7 mph E6.0 kmh E 4.0 mph6.4 kmh 30.32 in1026.8 mb 0.00 in0.0 mm 0.00 in0.0 mm 0.00 in0.0 mm
11:13 AM 40.9°F4.9°C 30.3°F-0.9°C 66% 2.3 mph SE3.7 kmh SE 2.7 mph4.3 kmh 30.32 in1026.8 mb 0.00 in0.0 mm 0.00 in0.0 mm 0.00 in0.0 mm
11:08 AM 40.3°F4.6°C 30.2°F-1.0°C 67% 1.8 mph SE2.9 kmh SE 2.5 mph4.0 kmh 30.33 in1027.1 mb 0.00 in0.0 mm 0.00 in0.0 mm 0.00 in0.0 mm
11:03 AM 40.0°F4.4°C 29.4°F-1.4°C 66% 1.7 mph ESE2.7 kmh ESE 2.9 mph4.7 kmh 30.33 in1027.1 mb 0.00 in0.0 mm 0.00 in0.0 mm 0.00 in0.0 mm
10:57 AM 39.4°F4.1°C 29.7°F-1.3°C 68% 1.6 mph SE2.6 kmh SE 2.9 mph4.7 kmh 30.33 in1027.1 mb 0.00 in0.0 mm 0.00 in0.0 mm 0.00 in0.0 mm
10:52 AM 38.7°F3.7°C 29.0°F-1.7°C 68% 1.7 mph SE2.7 kmh SE 2.9 mph4.7 kmh 30.32 in1026.8 mb 0.00 in0.0 mm 0.00 in0.0 mm 0.00 in0.0 mm
10:47 AM 38.0°F3.3°C 29.1°F-1.6°C 70% 2.2 mph E3.5 kmh E 2.9 mph4.7 kmh 30.33 in1027.1 mb 0.00 in0.0 mm 0.00 in0.0 mm 0.00 in0.0 mm
10:42 AM 37.4°F3.0°C 28.6°F-1.9°C 70% 2.6 mph ESE4.2 kmh ESE 2.9 mph4.7 kmh 30.33 in1027.1 mb 0.00 in0.0 mm 0.00 in0.0 mm 0.00 in0.0 mm
10:37 AM 36.7°F2.6°C 28.3°F-2.1°C 71% 1.0 mph SSE1.6 kmh SSE 4.0 mph6.4 kmh 30.32 in1026.8 mb 0.00 in0.0 mm 0.00 in0.0 mm 0.00 in0.0 mm
10:32 AM 35.6°F2.0°C 27.8°F-2.3°C 73% 3.8 mph SSE6.1 kmh SSE 4.0 mph6.4 kmh 30.32 in1026.8 mb 0.00 in0.0 mm 0.00 in0.0 mm 0.00 in0.0 mm
10:28 AM 34.9°F1.6°C 27.1°F-2.7°C 73% 2.0 mph SSW3.2 kmh SSW 3.6 mph5.8 kmh 30.32 in1026.8 mb 0.00 in0.0 mm 0.00 in0.0 mm 0.00 in0.0 mm
10:23 AM 33.8°F1.0°C 26.3°F-3.2°C 74% 2.3 mph SW3.7 kmh SW 2.9 mph4.7 kmh 30.32 in1026.8 mb 0.00 in0.0 mm 0.00 in0.0 mm 0.00 in0.0 mm
10:18 AM 32.6°F0.3°C 25.5°F-3.6°C 75% 0.9 mph SE1.4 kmh SE 3.1 mph5.0 kmh 30.33 in1027.1 mb 0.00 in0.0 mm 0.00 in0.0 mm 0.00 in0.0 mm
10:13 AM 31.3°F-0.4°C 24.3°F-4.3°C 75% 0.7 mph 1.1 kmh 3.1 mph5.0 kmh 30.33 in1027.1 mb 0.00 in0.0 mm 0.00 in0.0 mm 0.00 in0.0 mm
10:08 AM 30.8°F-0.7°C 24.1°F-4.4°C 76% 2.3 mph N3.7 kmh N 3.1 mph5.0 kmh 30.33 in1027.1 mb 0.00 in0.0 mm 0.00 in0.0 mm 0.00 in0.0 mm
10:03 AM 30.6°F-0.8°C 24.2°F-4.3°C 77% 2.5 mph N4.0 kmh N 3.4 mph5.5 kmh 30.33 in1027.1 mb 0.00 in0.0 mm 0.00 in0.0 mm 0.00 in0.0 mm
09:57 AM 29.7°F-1.3°C 23.3°F-4.8°C 77% 2.4 mph NE3.9 kmh NE 3.4 mph5.5 kmh 30.33 in1027.1 mb 0.00 in0.0 mm 0.00 in0.0 mm 0.00 in0.0 mm
09:52 AM 28.6°F-1.9°C 22.3°F-5.4°C 77% 2.6 mph ESE4.2 kmh ESE 3.8 mph6.1 kmh 30.32 in1026.8 mb 0.00 in0.0 mm 0.00 in0.0 mm 0.00 in0.0 mm
09:47 AM 27.4°F-2.6°C 21.3°F-5.9°C 78% 2.6 mph E4.2 kmh E 4.9 mph7.9 kmh 30.32 in1026.8 mb 0.00 in0.0 mm 0.00 in0.0 mm 0.00 in0.0 mm
09:42 AM 26.6°F-3.0°C 20.6°F-6.3°C 78% 3.3 mph NE5.3 kmh NE 4.9 mph7.9 kmh 30.32 in1026.8 mb 0.00 in0.0 mm 0.00 in0.0 mm 0.00 in0.0 mm
09:37 AM 26.5°F-3.1°C 20.8°F-6.2°C 79% 4.7 mph NE7.6 kmh NE 4.9 mph7.9 kmh 30.33 in1027.1 mb 0.00 in0.0 mm 0.00 in0.0 mm 0.00 in0.0 mm
09:32 AM 25.9°F-3.4°C 20.3°F-6.5°C 79% 2.8 mph ENE4.5 kmh ENE 5.1 mph8.2 kmh 30.32 in1026.8 mb 0.00 in0.0 mm 0.00 in0.0 mm 0.00 in0.0 mm
09:27 AM 26.1°F-3.3°C 20.4°F-6.4°C 79% 4.5 mph NE7.2 kmh NE 5.4 mph8.7 kmh 30.32 in1026.8 mb 0.00 in0.0 mm 0.00 in0.0 mm 0.00 in0.0 mm
09:22 AM 26.3°F-3.2°C 20.6°F-6.3°C 79% 4.9 mph ENE7.9 kmh ENE 5.4 mph8.7 kmh 30.32 in1026.8 mb 0.00 in0.0 mm 0.00 in0.0 mm 0.00 in0.0 mm
09:17 AM 26.3°F-3.2°C 20.9°F-6.2°C 80% 4.2 mph E6.8 kmh E 5.1 mph8.2 kmh 30.31 in1026.4 mb 0.00 in0.0 mm 0.00 in0.0 mm 0.00 in0.0 mm
09:12 AM 26.3°F-3.2°C 21.3°F-5.9°C 81% 4.3 mph E6.9 kmh E 5.1 mph8.2 kmh 30.31 in1026.4 mb 0.00 in0.0 mm 0.00 in0.0 mm 0.00 in0.0 mm
09:07 AM 26.3°F-3.2°C 21.8°F-5.7°C 83% 4.3 mph E6.9 kmh E 4.7 mph7.6 kmh 30.31 in1026.4 mb 0.00 in0.0 mm 0.00 in0.0 mm 0.00 in0.0 mm
09:03 AM 25.9°F-3.4°C 21.2°F-6.0°C 82% 4.1 mph ESE6.6 kmh ESE 4.5 mph7.2 kmh 30.31 in1026.4 mb 0.00 in0.0 mm 0.00 in0.0 mm 0.00 in0.0 mm
08:57 AM 24.8°F-4.0°C 20.4°F-6.4°C 83% 2.3 mph ESE3.7 kmh ESE 3.6 mph5.8 kmh 30.31 in1026.4 mb 0.00 in0.0 mm 0.00 in0.0 mm 0.00 in0.0 mm
08:52 AM 24.1°F-4.4°C 20.0°F-6.7°C 84% 2.1 mph ESE3.4 kmh ESE 3.1 mph5.0 kmh 30.31 in1026.4 mb 0.00 in0.0 mm 0.00 in0.0 mm 0.00 in0.0 mm
08:47 AM 23.0°F-5.0°C 18.9°F-7.3°C 84% 2.3 mph SSE3.7 kmh SSE 3.4 mph5.5 kmh 30.30 in1026.1 mb 0.00 in0.0 mm 0.00 in0.0 mm 0.00 in0.0 mm
08:42 AM 22.1°F-5.5°C 18.0°F-7.8°C 84% 2.5 mph ESE4.0 kmh ESE 4.0 mph6.4 kmh 30.31 in1026.4 mb 0.00 in0.0 mm 0.00 in0.0 mm 0.00 in0.0 mm
08:37 AM 21.1°F-6.1°C 17.2°F-8.2°C 85% 3.9 mph SE6.3 kmh SE 4.5 mph7.2 kmh 30.31 in1026.4 mb 0.00 in0.0 mm 0.00 in0.0 mm 0.00 in0.0 mm
08:32 AM 20.0°F-6.7°C 15.8°F-9.0°C 84% 4.0 mph ESE6.4 kmh ESE 4.5 mph7.2 kmh 30.31 in1026.4 mb 0.00 in0.0 mm 0.00 in0.0 mm 0.00 in0.0 mm
08:27 AM 19.1°F-7.2°C 14.9°F-9.5°C 84% 3.1 mph SE5.0 kmh SE 4.7 mph7.6 kmh 30.31 in1026.4 mb 0.00 in0.0 mm 0.00 in0.0 mm 0.00 in0.0 mm
08:22 AM 18.0°F-7.8°C 13.9°F-10.1°C 84% 4.0 mph ESE6.4 kmh ESE 4.7 mph7.6 kmh 30.31 in1026.4 mb 0.00 in0.0 mm 0.00 in0.0 mm 0.00 in0.0 mm
08:17 AM 17.3°F-8.2°C 13.1°F-10.5°C 84% 3.9 mph ESE6.3 kmh ESE 4.5 mph7.2 kmh 30.31 in1026.4 mb 0.00 in0.0 mm 0.00 in0.0 mm 0.00 in0.0 mm
08:12 AM 16.6°F-8.6°C 12.5°F-10.8°C 84% 3.4 mph E5.5 kmh E 5.1 mph8.2 kmh 30.31 in1026.4 mb 0.00 in0.0 mm 0.00 in0.0 mm 0.00 in0.0 mm
08:07 AM 16.2°F-8.8°C 12.2°F-11.0°C 84% 4.6 mph NE7.4 kmh NE 5.1 mph8.2 kmh 30.31 in1026.4 mb 0.00 in0.0 mm 0.00 in0.0 mm 0.00 in0.0 mm
08:02 AM 15.5°F-9.2°C 11.4°F-11.4°C 84% 2.0 mph ENE3.2 kmh ENE 2.9 mph4.7 kmh 30.31 in1026.4 mb 0.00 in0.0 mm 0.00 in0.0 mm 0.00 in0.0 mm
07:57 AM 15.1°F-9.4°C 11.2°F-11.6°C 84% 0.4 mph SSE0.6 kmh SSE 3.1 mph5.0 kmh 30.31 in1026.4 mb 0.00 in0.0 mm 0.00 in0.0 mm 0.00 in0.0 mm
07:51 AM 14.4°F-9.8°C 10.5°F-11.9°C 84% 2.6 mph S4.2 kmh S 4.0 mph6.4 kmh 30.31 in1026.4 mb 0.00 in0.0 mm 0.00 in0.0 mm 0.00 in0.0 mm
07:46 AM 13.7°F-10.2°C 9.7°F-12.4°C 84% 2.2 mph SSW3.5 kmh SSW 4.0 mph6.4 kmh 30.31 in1026.4 mb 0.00 in0.0 mm 0.00 in0.0 mm 0.00 in0.0 mm
07:41 AM 13.3°F-10.4°C 9.4°F-12.6°C 84% 3.5 mph S5.6 kmh S 3.6 mph5.8 kmh 30.30 in1026.1 mb 0.00 in0.0 mm 0.00 in0.0 mm 0.00 in0.0 mm
07:37 AM 12.6°F-10.8°C 8.4°F-13.1°C 83% Calm Calm 5.4 mph8.7 kmh 30.30 in1026.1 mb 0.00 in0.0 mm 0.00 in0.0 mm 0.00 in0.0 mm
07:32 AM 12.2°F-11.0°C 7.7°F-13.5°C 82% 1.0 mph 1.6 kmh 5.4 mph8.7 kmh 30.30 in1026.1 mb 0.00 in0.0 mm 0.00 in0.0 mm 0.00 in0.0 mm
07:27 AM 11.9°F-11.2°C 7.4°F-13.7°C 82% 2.8 mph N4.5 kmh N 3.6 mph5.8 kmh 30.30 in1026.1 mb 0.00 in0.0 mm 0.00 in0.0 mm 0.00 in0.0 mm
07:22 AM 11.9°F-11.2°C 7.4°F-13.7°C 82% 2.0 mph N3.2 kmh N 5.8 mph9.3 kmh 30.29 in1025.7 mb 0.00 in0.0 mm 0.00 in0.0 mm 0.00 in0.0 mm
07:17 AM 11.9°F-11.2°C 7.4°F-13.7°C 82% 5.3 mph ENE8.5 kmh ENE 5.8 mph9.3 kmh 30.29 in1025.7 mb 0.00 in0.0 mm 0.00 in0.0 mm 0.00 in0.0 mm
07:12 AM 11.2°F-11.6°C 6.4°F-14.2°C 81% 3.4 mph NNE5.5 kmh NNE 3.4 mph5.5 kmh 30.28 in1025.4 mb 0.00 in0.0 mm 0.00 in0.0 mm 0.00 in0.0 mm
07:07 AM 11.2°F-11.6°C 6.4°F-14.2°C 81% 3.4 mph NNE5.5 kmh NNE 3.4 mph5.5 kmh 30.28 in1025.4 mb 0.00 in0.0 mm 0.00 in0.0 mm 0.00 in0.0 mm
07:02 AM 11.2°F-11.6°C 6.4°F-14.2°C 81% 3.4 mph NNE5.5 kmh NNE 6.3 mph10.1 kmh 30.28 in1025.4 mb 0.00 in0.0 mm 0.00 in0.0 mm 0.00 in0.0 mm
06:57 AM 11.3°F-11.5°C 6.6°F-14.1°C 81% 2.0 mph 3.2 kmh 6.3 mph10.1 kmh 30.28 in1025.4 mb 0.00 in0.0 mm 0.00 in0.0 mm 0.00 in0.0 mm
06:51 AM 12.1°F-11.1°C 7.3°F-13.7°C 81% 6.3 mph 10.1 kmh 6.3 mph10.1 kmh 30.26 in1024.7 mb 0.00 in0.0 mm 0.00 in0.0 mm 0.00 in0.0 mm
06:46 AM 12.1°F-11.1°C 7.3°F-13.7°C 81% 6.3 mph 10.1 kmh 6.7 mph10.8 kmh 30.27 in1025.1 mb 0.00 in0.0 mm 0.00 in0.0 mm 0.00 in0.0 mm
06:41 AM 12.1°F-11.1°C 7.3°F-13.7°C 81% 6.3 mph 10.1 kmh 6.7 mph10.8 kmh 30.27 in1025.1 mb 0.00 in0.0 mm 0.00 in0.0 mm 0.00 in0.0 mm
06:37 AM 12.2°F-11.0°C 7.5°F-13.6°C 81% 5.1 mph 8.2 kmh 6.7 mph10.8 kmh 30.27 in1025.1 mb 0.00 in0.0 mm 0.00 in0.0 mm 0.00 in0.0 mm
06:32 AM 12.6°F-10.8°C 8.1°F-13.3°C 82% 0.6 mph 1.0 kmh 3.1 mph5.0 kmh 30.27 in1025.1 mb 0.00 in0.0 mm 0.00 in0.0 mm 0.00 in0.0 mm
06:27 AM 12.8°F-10.7°C 8.3°F-13.2°C 82% 2.5 mph 4.0 kmh 3.1 mph5.0 kmh 30.27 in1025.1 mb 0.00 in0.0 mm 0.00 in0.0 mm 0.00 in0.0 mm
06:22 AM 13.1°F-10.5°C 8.4°F-13.1°C 81% 1.1 mph ENE1.8 kmh ENE 3.6 mph5.8 kmh 30.26 in1024.7 mb 0.00 in0.0 mm 0.00 in0.0 mm 0.00 in0.0 mm
06:17 AM 13.1°F-10.5°C 8.4°F-13.1°C 81% 2.6 mph NNE4.2 kmh NNE 4.3 mph6.9 kmh 30.27 in1025.1 mb 0.00 in0.0 mm 0.00 in0.0 mm 0.00 in0.0 mm
06:12 AM 13.3°F-10.4°C 8.8°F-12.9°C 82% 4.0 mph NNE6.4 kmh NNE 4.3 mph6.9 kmh 30.27 in1025.1 mb 0.00 in0.0 mm 0.00 in0.0 mm 0.00 in0.0 mm
06:07 AM 13.3°F-10.4°C 8.8°F-12.9°C 82% 2.8 mph N4.5 kmh N 4.0 mph6.4 kmh 30.27 in1025.1 mb 0.00 in0.0 mm 0.00 in0.0 mm 0.00 in0.0 mm
06:02 AM 13.5°F-10.3°C 9.0°F-12.8°C 82% 0.7 mph NNW1.1 kmh NNW 5.4 mph8.7 kmh 30.27 in1025.1 mb 0.00 in0.0 mm 0.00 in0.0 mm 0.00 in0.0 mm
05:56 AM 13.9°F-10.1°C 9.4°F-12.6°C 82% 1.5 mph ENE2.4 kmh ENE 5.4 mph8.7 kmh 30.27 in1025.1 mb 0.00 in0.0 mm 0.00 in0.0 mm 0.00 in0.0 mm
05:51 AM 14.0°F-10.0°C 9.5°F-12.5°C 82% 5.1 mph E8.2 kmh E 5.4 mph8.7 kmh 30.26 in1024.7 mb 0.00 in0.0 mm 0.00 in0.0 mm 0.00 in0.0 mm
05:46 AM 14.2°F-9.9°C 9.7°F-12.4°C 82% 2.5 mph ENE4.0 kmh ENE 4.9 mph7.9 kmh 30.27 in1025.1 mb 0.00 in0.0 mm 0.00 in0.0 mm 0.00 in0.0 mm
05:41 AM 14.4°F-9.8°C 9.9°F-12.3°C 82% 4.0 mph E6.4 kmh E 5.4 mph8.7 kmh 30.26 in1024.7 mb 0.00 in0.0 mm 0.00 in0.0 mm 0.00 in0.0 mm
05:36 AM 14.4°F-9.8°C 9.9°F-12.3°C 82% 4.1 mph ESE6.6 kmh ESE 5.4 mph8.7 kmh 30.26 in1024.7 mb 0.00 in0.0 mm 0.00 in0.0 mm 0.00 in0.0 mm
05:31 AM 14.2°F-9.9°C 9.7°F-12.4°C 82% 4.0 mph E6.4 kmh E 4.9 mph7.9 kmh 30.26 in1024.7 mb 0.00 in0.0 mm 0.00 in0.0 mm 0.00 in0.0 mm
05:27 AM 14.2°F-9.9°C 9.7°F-12.4°C 82% 4.3 mph ENE6.9 kmh ENE 4.9 mph7.9 kmh 30.26 in1024.7 mb 0.00 in0.0 mm 0.00 in0.0 mm 0.00 in0.0 mm
05:22 AM 14.4°F-9.8°C 9.6°F-12.4°C 81% 3.6 mph ENE5.8 kmh ENE 3.8 mph6.1 kmh 30.26 in1024.7 mb 0.00 in0.0 mm 0.00 in0.0 mm 0.00 in0.0 mm
05:17 AM 14.6°F-9.7°C 9.8°F-12.3°C 81% 2.9 mph NE4.7 kmh NE 4.0 mph6.4 kmh 30.26 in1024.7 mb 0.00 in0.0 mm 0.00 in0.0 mm 0.00 in0.0 mm
05:12 AM 14.6°F-9.7°C 9.8°F-12.3°C 81% 3.6 mph NE5.8 kmh NE 4.0 mph6.4 kmh 30.26 in1024.7 mb 0.00 in0.0 mm 0.00 in0.0 mm 0.00 in0.0 mm
05:07 AM 14.6°F-9.7°C 9.8°F-12.3°C 81% 1.9 mph 3.1 kmh 3.6 mph5.8 kmh 30.26 in1024.7 mb 0.00 in0.0 mm 0.00 in0.0 mm 0.00 in0.0 mm
05:02 AM 14.6°F-9.7°C 9.8°F-12.3°C 81% 3.1 mph NNE5.0 kmh NNE 3.4 mph5.5 kmh 30.26 in1024.7 mb 0.00 in0.0 mm 0.00 in0.0 mm 0.00 in0.0 mm
04:56 AM 14.8°F-9.6°C 10.0°F-12.2°C 81% 2.9 mph NNE4.7 kmh NNE 3.4 mph5.5 kmh 30.26 in1024.7 mb 0.00 in0.0 mm 0.00 in0.0 mm 0.00 in0.0 mm
04:51 AM 14.8°F-9.6°C 10.0°F-12.2°C 81% 1.5 mph NNE2.4 kmh NNE 1.8 mph2.9 kmh 30.26 in1024.7 mb 0.00 in0.0 mm 0.00 in0.0 mm 0.00 in0.0 mm
04:46 AM 14.8°F-9.6°C 10.0°F-12.2°C 81% 1.6 mph SE2.6 kmh SE 2.0 mph3.2 kmh 30.26 in1024.7 mb 0.00 in0.0 mm 0.00 in0.0 mm 0.00 in0.0 mm
04:41 AM 14.8°F-9.6°C 10.0°F-12.2°C 81% 1.6 mph SE2.6 kmh SE 2.0 mph3.2 kmh 30.25 in1024.4 mb 0.00 in0.0 mm 0.00 in0.0 mm 0.00 in0.0 mm
04:36 AM 14.8°F-9.6°C 10.0°F-12.2°C 81% Calm Calm 1.1 mph1.8 kmh 30.25 in1024.4 mb 0.00 in0.0 mm 0.00 in0.0 mm 0.00 in0.0 mm
04:31 AM 14.8°F-9.6°C 10.0°F-12.2°C 81% 0.6 mph NNE1.0 kmh NNE 2.2 mph3.5 kmh 30.26 in1024.7 mb 0.00 in0.0 mm 0.00 in0.0 mm 0.00 in0.0 mm
04:26 AM 14.9°F-9.5°C 10.2°F-12.1°C 81% 0.8 mph ENE1.3 kmh ENE 2.2 mph3.5 kmh 30.26 in1024.7 mb 0.00 in0.0 mm 0.00 in0.0 mm 0.00 in0.0 mm
04:21 AM 15.1°F-9.4°C 10.4°F-12.0°C 81% Calm Calm 2.7 mph4.3 kmh 30.25 in1024.4 mb 0.00 in0.0 mm 0.00 in0.0 mm 0.00 in0.0 mm
04:16 AM 15.5°F-9.2°C 10.7°F-11.8°C 81% 1.8 mph NNE2.9 kmh NNE 3.6 mph5.8 kmh 30.26 in1024.7 mb 0.00 in0.0 mm 0.00 in0.0 mm 0.00 in0.0 mm
04:11 AM 15.5°F-9.2°C 10.7°F-11.8°C 81% 3.6 mph ENE5.8 kmh ENE 3.6 mph5.8 kmh 30.25 in1024.4 mb 0.00 in0.0 mm 0.00 in0.0 mm 0.00 in0.0 mm
04:06 AM 15.5°F-9.2°C 10.7°F-11.8°C 81% 3.1 mph E5.0 kmh E 4.5 mph7.2 kmh 30.25 in1024.4 mb 0.00 in0.0 mm 0.00 in0.0 mm 0.00 in0.0 mm
04:01 AM 15.5°F-9.2°C 10.7°F-11.8°C 81% 2.6 mph NE4.2 kmh NE 4.9 mph7.9 kmh 30.25 in1024.4 mb 0.00 in0.0 mm 0.00 in0.0 mm 0.00 in0.0 mm
03:56 AM 15.7°F-9.1°C 10.9°F-11.7°C 81% 4.7 mph NNE7.6 kmh NNE 4.9 mph7.9 kmh 30.25 in1024.4 mb 0.00 in0.0 mm 0.00 in0.0 mm 0.00 in0.0 mm
03:51 AM 15.8°F-9.0°C 11.1°F-11.6°C 81% 2.5 mph NE4.0 kmh NE 3.8 mph6.1 kmh 30.25 in1024.4 mb 0.00 in0.0 mm 0.00 in0.0 mm 0.00 in0.0 mm
03:46 AM 15.8°F-9.0°C 11.1°F-11.6°C 81% 3.4 mph NE5.5 kmh NE 4.7 mph7.6 kmh 30.25 in1024.4 mb 0.00 in0.0 mm 0.00 in0.0 mm 0.00 in0.0 mm
03:41 AM 15.8°F-9.0°C 11.1°F-11.6°C 81% 2.1 mph NNE3.4 kmh NNE 4.7 mph7.6 kmh 30.25 in1024.4 mb 0.00 in0.0 mm 0.00 in0.0 mm 0.00 in0.0 mm
03:36 AM 15.8°F-9.0°C 11.1°F-11.6°C 81% 4.2 mph 6.8 kmh 4.7 mph7.6 kmh 30.25 in1024.4 mb 0.00 in0.0 mm 0.00 in0.0 mm 0.00 in0.0 mm
03:31 AM 15.8°F-9.0°C 11.1°F-11.6°C 81% 4.3 mph 6.9 kmh 4.7 mph7.6 kmh 30.25 in1024.4 mb 0.00 in0.0 mm 0.00 in0.0 mm 0.00 in0.0 mm
03:26 AM 15.7°F-9.1°C 10.9°F-11.7°C 81% 2.3 mph 3.7 kmh 2.7 mph4.3 kmh 30.25 in1024.4 mb 0.00 in0.0 mm 0.00 in0.0 mm 0.00 in0.0 mm
03:21 AM 15.8°F-9.0°C 11.1°F-11.6°C 81% 2.0 mph 3.2 kmh 2.7 mph4.3 kmh 30.25 in1024.4 mb 0.00 in0.0 mm 0.00 in0.0 mm 0.00 in0.0 mm
03:16 AM 15.8°F-9.0°C 11.1°F-11.6°C 81% 1.4 mph N2.3 kmh N 3.4 mph5.5 kmh 30.25 in1024.4 mb 0.00 in0.0 mm 0.00 in0.0 mm 0.00 in0.0 mm
03:11 AM 15.8°F-9.0°C 11.1°F-11.6°C 81% 2.3 mph NE3.7 kmh NE 3.4 mph5.5 kmh 30.25 in1024.4 mb 0.00 in0.0 mm 0.00 in0.0 mm 0.00 in0.0 mm
03:06 AM 15.5°F-9.2°C 10.4°F-12.0°C 80% 3.4 mph NNE5.5 kmh NNE 3.4 mph5.5 kmh 30.25 in1024.4 mb 0.00 in0.0 mm 0.00 in0.0 mm 0.00 in0.0 mm
03:01 AM 15.5°F-9.2°C 10.4°F-12.0°C 80% 2.8 mph 4.5 kmh 3.4 mph5.5 kmh 30.25 in1024.4 mb 0.00 in0.0 mm 0.00 in0.0 mm 0.00 in0.0 mm
02:56 AM 15.5°F-9.2°C 10.4°F-12.0°C 80% 1.6 mph 2.6 kmh 3.1 mph5.0 kmh 30.26 in1024.7 mb 0.00 in0.0 mm 0.00 in0.0 mm 0.00 in0.0 mm
02:51 AM 15.7°F-9.1°C 10.6°F-11.9°C 80% 2.8 mph NNE4.5 kmh NNE 3.6 mph5.8 kmh 30.25 in1024.4 mb 0.00 in0.0 mm 0.00 in0.0 mm 0.00 in0.0 mm
02:46 AM 15.7°F-9.1°C 10.6°F-11.9°C 80% 3.2 mph N5.1 kmh N 3.6 mph5.8 kmh 30.25 in1024.4 mb 0.00 in0.0 mm 0.00 in0.0 mm 0.00 in0.0 mm
02:41 AM 15.7°F-9.1°C 10.6°F-11.9°C 80% 2.5 mph N4.0 kmh N 2.9 mph4.7 kmh 30.25 in1024.4 mb 0.00 in0.0 mm 0.00 in0.0 mm 0.00 in0.0 mm
02:36 AM 15.8°F-9.0°C 10.8°F-11.8°C 80% 2.1 mph 3.4 kmh 3.6 mph5.8 kmh 30.25 in1024.4 mb 0.00 in0.0 mm 0.00 in0.0 mm 0.00 in0.0 mm
02:31 AM 15.8°F-9.0°C 10.8°F-11.8°C 80% 1.5 mph 2.4 kmh 3.6 mph5.8 kmh 30.25 in1024.4 mb 0.00 in0.0 mm 0.00 in0.0 mm 0.00 in0.0 mm
02:26 AM 16.0°F-8.9°C 11.0°F-11.7°C 80% 2.3 mph N3.7 kmh N 3.6 mph5.8 kmh 30.26 in1024.7 mb 0.00 in0.0 mm 0.00 in0.0 mm 0.00 in0.0 mm
02:21 AM 15.8°F-9.0°C 10.8°F-11.8°C 80% 1.8 mph N2.9 kmh N 3.6 mph5.8 kmh 30.26 in1024.7 mb 0.00 in0.0 mm 0.00 in0.0 mm 0.00 in0.0 mm
02:16 AM 16.0°F-8.9°C 11.0°F-11.7°C 80% 2.7 mph 4.3 kmh 3.4 mph5.5 kmh 30.26 in1024.7 mb 0.00 in0.0 mm 0.00 in0.0 mm 0.00 in0.0 mm
02:11 AM 16.0°F-8.9°C 11.0°F-11.7°C 80% 2.3 mph 3.7 kmh 2.7 mph4.3 kmh 30.26 in1024.7 mb 0.00 in0.0 mm 0.00 in0.0 mm 0.00 in0.0 mm
02:06 AM 16.0°F-8.9°C 11.0°F-11.7°C 80% 1.8 mph NE2.9 kmh NE 1.8 mph2.9 kmh 30.25 in1024.4 mb 0.00 in0.0 mm 0.00 in0.0 mm 0.00 in0.0 mm
02:01 AM 15.8°F-9.0°C 11.1°F-11.6°C 81% 1.3 mph NE2.1 kmh NE 1.6 mph2.6 kmh 30.26 in1024.7 mb 0.00 in0.0 mm 0.00 in0.0 mm 0.00 in0.0 mm
01:55 AM 15.8°F-9.0°C 11.1°F-11.6°C 81% Calm Calm 4.3 mph6.9 kmh 30.25 in1024.4 mb 0.00 in0.0 mm 0.00 in0.0 mm 0.00 in0.0 mm
01:50 AM 15.7°F-9.1°C 10.9°F-11.7°C 81% 0.6 mph NE1.0 kmh NE 4.7 mph7.6 kmh 30.26 in1024.7 mb 0.00 in0.0 mm 0.00 in0.0 mm 0.00 in0.0 mm
01:45 AM 15.5°F-9.2°C 10.7°F-11.8°C 81% 3.6 mph ESE5.8 kmh ESE 4.7 mph7.6 kmh 30.26 in1024.7 mb 0.00 in0.0 mm 0.00 in0.0 mm 0.00 in0.0 mm
01:40 AM 15.5°F-9.2°C 10.7°F-11.8°C 81% 4.7 mph E7.6 kmh E 5.4 mph8.7 kmh 30.26 in1024.7 mb 0.00 in0.0 mm 0.00 in0.0 mm 0.00 in0.0 mm
01:35 AM 15.3°F-9.3°C 10.5°F-11.9°C 81% 4.2 mph E6.8 kmh E 5.6 mph9.0 kmh 30.26 in1024.7 mb 0.00 in0.0 mm 0.00 in0.0 mm 0.00 in0.0 mm
01:31 AM 15.3°F-9.3°C 10.5°F-11.9°C 81% 5.1 mph E8.2 kmh E 5.6 mph9.0 kmh 30.26 in1024.7 mb 0.00 in0.0 mm 0.00 in0.0 mm 0.00 in0.0 mm
01:26 AM 15.1°F-9.4°C 10.4°F-12.0°C 81% 5.5 mph E8.9 kmh E 5.6 mph9.0 kmh 30.26 in1024.7 mb 0.00 in0.0 mm 0.00 in0.0 mm 0.00 in0.0 mm
01:21 AM 14.9°F-9.5°C 9.9°F-12.3°C 80% 5.1 mph E8.2 kmh E 5.4 mph8.7 kmh 30.26 in1024.7 mb 0.00 in0.0 mm 0.00 in0.0 mm 0.00 in0.0 mm
01:16 AM 14.8°F-9.6°C 9.7°F-12.4°C 80% 4.0 mph E6.4 kmh E 4.0 mph6.4 kmh 30.26 in1024.7 mb 0.00 in0.0 mm 0.00 in0.0 mm 0.00 in0.0 mm
01:11 AM 14.8°F-9.6°C 9.7°F-12.4°C 80% 3.1 mph E5.0 kmh E 3.4 mph5.5 kmh 30.26 in1024.7 mb 0.00 in0.0 mm 0.00 in0.0 mm 0.00 in0.0 mm
01:06 AM 14.6°F-9.7°C 9.5°F-12.5°C 80% 1.8 mph ENE2.9 kmh ENE 1.8 mph2.9 kmh 30.26 in1024.7 mb 0.00 in0.0 mm 0.00 in0.0 mm 0.00 in0.0 mm
01:01 AM 14.8°F-9.6°C 9.7°F-12.4°C 80% 0.3 mph N0.5 kmh N 1.6 mph2.6 kmh 30.26 in1024.7 mb 0.00 in0.0 mm 0.00 in0.0 mm 0.00 in0.0 mm
12:55 AM 14.8°F-9.6°C 9.7°F-12.4°C 80% 1.5 mph NNW2.4 kmh NNW 2.5 mph4.0 kmh 30.26 in1024.7 mb 0.00 in0.0 mm 0.00 in0.0 mm 0.00 in0.0 mm
12:50 AM 14.6°F-9.7°C 9.5°F-12.5°C 80% 1.3 mph NE2.1 kmh NE 3.8 mph6.1 kmh 30.26 in1024.7 mb 0.00 in0.0 mm 0.00 in0.0 mm 0.00 in0.0 mm
12:45 AM 14.4°F-9.8°C 9.4°F-12.6°C 80% 2.8 mph E4.5 kmh E 3.8 mph6.1 kmh 30.25 in1024.4 mb 0.00 in0.0 mm 0.00 in0.0 mm 0.00 in0.0 mm
12:40 AM 14.4°F-9.8°C 9.1°F-12.7°C 79% 1.0 mph E1.6 kmh E 2.0 mph3.2 kmh 30.25 in1024.4 mb 0.00 in0.0 mm 0.00 in0.0 mm 0.00 in0.0 mm
12:35 AM 14.2°F-9.9°C 8.9°F-12.8°C 79% 1.0 mph ENE1.6 kmh ENE 2.0 mph3.2 kmh 30.25 in1024.4 mb 0.00 in0.0 mm 0.00 in0.0 mm 0.00 in0.0 mm
12:30 AM 14.0°F-10.0°C 8.7°F-12.9°C 79% 1.5 mph NNE2.4 kmh NNE 1.8 mph2.9 kmh 30.25 in1024.4 mb 0.00 in0.0 mm 0.00 in0.0 mm 0.00 in0.0 mm
12:25 AM 14.0°F-10.0°C 8.7°F-12.9°C 79% Calm Calm 2.7 mph4.3 kmh 30.25 in1024.4 mb 0.00 in0.0 mm 0.00 in0.0 mm 0.00 in0.0 mm
12:20 AM 14.0°F-10.0°C 8.7°F-12.9°C 79% 2.5 mph ENE4.0 kmh ENE 2.7 mph4.3 kmh 30.25 in1024.4 mb 0.00 in0.0 mm 0.00 in0.0 mm 0.00 in0.0 mm
12:15 AM 14.0°F-10.0°C 8.7°F-12.9°C 79% 1.2 mph NNE1.9 kmh NNE 1.6 mph2.6 kmh 30.26 in1024.7 mb 0.00 in0.0 mm 0.00 in0.0 mm 0.00 in0.0 mm
12:10 AM 14.0°F-10.0°C 8.5°F-13.1°C 78% 0.9 mph NNE1.4 kmh NNE 2.7 mph4.3 kmh 30.26 in1024.7 mb 0.00 in0.0 mm 0.00 in0.0 mm 0.00 in0.0 mm
12:06 AM 14.0°F-10.0°C 8.5°F-13.1°C 78% 1.8 mph NNE2.9 kmh NNE 4.0 mph6.4 kmh 30.25 in1024.4 mb 0.00 in0.0 mm 0.00 in0.0 mm 0.00 in0.0 mm
12:01 AM 13.9°F-10.1°C 8.3°F-13.2°C 78% 3.1 mph N5.0 kmh N 4.0 mph6.4 kmh 30.26 in1024.7 mb 0.00 in0.0 mm 0.00 in0.0 mm 0.00 in0.0 mm